createdAt,value
2022-10-14T00:01:23.781Z,10.27
2022-10-14T00:03:52.441Z,10.74
2022-10-14T00:06:23.929Z,10.49
2022-10-14T00:08:52.781Z,10.80
2022-10-14T00:11:26.680Z,10.69
2022-10-14T00:13:57.080Z,10.75
2022-10-14T00:16:27.741Z,10.73
2022-10-14T00:18:56.928Z,10.57
2022-10-14T00:21:26.821Z,10.43
2022-10-14T00:23:54.979Z,10.67
2022-10-14T00:26:33.258Z,10.59
2022-10-14T00:29:02.272Z,10.18
2022-10-14T00:31:32.751Z,10.54
2022-10-14T00:34:00.861Z,10.86
2022-10-14T00:36:28.709Z,10.92
2022-10-14T00:38:57.099Z,10.81
2022-10-14T00:41:32.752Z,10.75
2022-10-14T00:44:07.465Z,10.76
2022-10-14T00:46:40.240Z,10.62
2022-10-14T00:49:12.779Z,10.30
2022-10-14T00:51:42.249Z,10.29
2022-10-14T00:54:11.903Z,10.37
2022-10-14T00:56:41.130Z,10.62
2022-10-14T00:59:11.294Z,10.81
2022-10-14T01:01:39.411Z,10.75
2022-10-14T01:04:07.169Z,10.63
2022-10-14T01:06:41.695Z,10.65
2022-10-14T01:09:26.482Z,10.51
2022-10-14T01:12:42.609Z,10.96
2022-10-14T01:15:19.719Z,10.88
2022-10-14T01:17:57.558Z,10.98
2022-10-14T01:20:47.359Z,10.31
2022-10-14T01:23:34.118Z,10.53
2022-10-14T01:26:23.932Z,10.63
2022-10-14T01:29:27.109Z,11.02
2022-10-14T01:32:01.808Z,10.67
2022-10-14T01:34:39.833Z,10.71
2022-10-14T01:37:18.127Z,10.48
2022-10-14T01:39:52.049Z,10.56
2022-10-14T01:42:32.172Z,10.67
2022-10-14T01:45:22.901Z,10.54
2022-10-14T01:47:51.968Z,10.73
2022-10-14T01:50:21.809Z,10.71
2022-10-14T01:53:02.273Z,10.73
2022-10-14T01:55:35.764Z,10.75
2022-10-14T01:58:04.428Z,10.80
2022-10-14T02:00:32.763Z,10.42
2022-10-14T02:03:02.430Z,10.61
2022-10-14T02:05:49.132Z,10.60
2022-10-14T02:08:26.010Z,10.18
2022-10-14T02:11:02.344Z,10.73
2022-10-14T02:13:30.763Z,10.76
2022-10-14T02:16:03.313Z,10.77
2022-10-14T02:18:56.149Z,10.84
2022-10-14T02:21:32.848Z,10.84
2022-10-14T02:24:28.869Z,10.80
2022-10-14T02:26:58.990Z,10.61
2022-10-14T02:29:27.957Z,10.56
2022-10-14T02:31:57.953Z,9.91
2022-10-14T02:34:26.879Z,10.50
2022-10-14T02:36:55.476Z,10.41
2022-10-14T02:39:30.913Z,9.87
2022-10-14T02:41:58.880Z,10.56
2022-10-14T02:44:27.021Z,10.69
2022-10-14T02:46:57.661Z,10.79
2022-10-14T02:49:29.192Z,10.67
2022-10-14T02:51:57.608Z,10.43
2022-10-14T02:54:25.388Z,10.26
2022-10-14T02:56:53.479Z,10.43
2022-10-14T02:59:22.290Z,10.42
2022-10-14T03:01:50.296Z,10.44
2022-10-14T03:04:18.548Z,10.17
2022-10-14T03:06:46.300Z,10.33
2022-10-14T03:09:14.531Z,10.17
2022-10-14T03:11:42.712Z,10.41
2022-10-14T03:14:11.051Z,10.38
2022-10-14T03:16:39.140Z,10.03
2022-10-14T03:19:07.449Z,9.96
2022-10-14T03:21:36.682Z,10.49
2022-10-14T03:24:05.101Z,10.15
2022-10-14T03:26:33.328Z,10.73
2022-10-14T03:29:01.295Z,10.62
2022-10-14T03:31:29.687Z,10.54
2022-10-14T03:33:59.168Z,10.49
2022-10-14T03:36:29.231Z,10.58
2022-10-14T03:38:57.267Z,10.58
2022-10-14T03:41:26.547Z,10.66
2022-10-14T03:43:54.358Z,11.06
2022-10-14T03:46:22.302Z,11.33
2022-10-14T03:48:51.134Z,11.30
2022-10-14T03:51:19.329Z,10.97
2022-10-14T03:53:47.582Z,11.00
2022-10-14T03:56:18.569Z,11.44
2022-10-14T03:58:46.519Z,11.11
2022-10-14T04:01:14.791Z,11.62
2022-10-14T04:03:48.423Z,11.37
2022-10-14T04:06:16.700Z,11.10
2022-10-14T04:08:44.999Z,11.00
2022-10-14T04:11:13.932Z,11.07
2022-10-14T04:13:41.768Z,11.29
2022-10-14T04:16:11.118Z,11.10
2022-10-14T04:18:39.544Z,11.14
2022-10-14T04:21:11.931Z,11.50
2022-10-14T04:23:40.477Z,11.66
2022-10-14T04:26:09.499Z,11.62
2022-10-14T04:28:37.996Z,11.72
2022-10-14T04:31:06.621Z,11.35
2022-10-14T04:33:35.377Z,11.31
2022-10-14T04:36:07.170Z,11.14
2022-10-14T04:38:35.440Z,10.88
2022-10-14T04:41:03.914Z,10.79
2022-10-14T04:43:31.798Z,10.85
2022-10-14T04:46:04.704Z,11.42
2022-10-14T04:48:34.089Z,11.29
2022-10-14T04:51:03.020Z,11.12
2022-10-14T04:53:31.380Z,10.70
2022-10-14T04:56:00.454Z,10.57
2022-10-14T04:58:28.799Z,10.70
2022-10-14T05:00:57.521Z,10.88
2022-10-14T05:03:26.040Z,10.97
2022-10-14T05:05:54.169Z,10.89
2022-10-14T05:08:21.982Z,10.88
2022-10-14T05:10:50.644Z,10.42
2022-10-14T05:13:20.086Z,9.75
2022-10-14T05:15:49.259Z,10.35
2022-10-14T05:18:16.997Z,10.15
2022-10-14T05:20:46.223Z,9.96
2022-10-14T05:23:14.182Z,10.14
2022-10-14T05:25:42.588Z,9.90
2022-10-14T05:28:11.140Z,10.53
2022-10-14T05:30:39.360Z,9.89
2022-10-14T05:33:08.334Z,10.14
2022-10-14T05:35:58.071Z,9.97
2022-10-14T05:38:27.014Z,9.99
2022-10-14T05:40:56.194Z,10.51
2022-10-14T05:43:27.962Z,10.38
2022-10-14T05:46:00.503Z,10.43
2022-10-14T05:48:28.922Z,11.06
2022-10-14T05:51:01.730Z,10.96
2022-10-14T05:53:31.125Z,10.97
2022-10-14T05:56:07.684Z,11.05
2022-10-14T05:58:37.956Z,11.29
2022-10-14T06:01:08.896Z,12.21
2022-10-14T06:03:39.241Z,12.63
2022-10-14T06:06:08.348Z,13.12
2022-10-14T06:08:36.476Z,13.25
2022-10-14T06:11:05.043Z,13.27
2022-10-14T06:13:33.948Z,13.44
2022-10-14T06:16:06.193Z,13.57
2022-10-14T06:18:35.568Z,13.52
2022-10-14T06:21:04.653Z,13.61
2022-10-14T06:23:33.072Z,13.45
2022-10-14T06:26:05.018Z,13.46
2022-10-14T06:28:33.032Z,13.71
2022-10-14T06:31:01.640Z,13.60
2022-10-14T06:33:30.121Z,13.76
2022-10-14T06:35:58.668Z,13.75
2022-10-14T06:38:27.582Z,14.03
2022-10-14T06:40:55.802Z,14.46
2022-10-14T06:43:23.677Z,14.59
2022-10-14T06:45:52.947Z,14.49
2022-10-14T06:48:21.050Z,14.65
2022-10-14T06:50:48.862Z,14.89
2022-10-14T06:53:17.067Z,14.76
2022-10-14T06:55:45.422Z,15.00
2022-10-14T06:58:13.392Z,15.04
2022-10-14T07:00:45.739Z,15.14
2022-10-14T07:03:15.842Z,15.25
2022-10-14T07:05:44.260Z,15.29
2022-10-14T07:08:15.223Z,15.39
2022-10-14T07:10:44.095Z,15.86
2022-10-14T07:13:12.031Z,15.99
2022-10-14T07:15:40.009Z,16.30
2022-10-14T07:18:08.600Z,16.41
2022-10-14T07:20:36.549Z,16.45
2022-10-14T07:23:04.794Z,16.52
2022-10-14T07:25:33.257Z,16.55
2022-10-14T07:28:01.428Z,16.77
2022-10-14T07:30:29.480Z,17.33
2022-10-14T07:32:59.565Z,17.33
2022-10-14T07:35:27.848Z,17.17
2022-10-14T07:37:56.339Z,17.40
2022-10-14T07:40:25.479Z,17.84
2022-10-14T07:42:53.381Z,17.54
2022-10-14T07:45:24.943Z,18.16
2022-10-14T07:47:53.362Z,18.30
2022-10-14T07:50:21.598Z,18.74
2022-10-14T07:52:49.524Z,18.75
2022-10-14T07:55:17.811Z,18.99
2022-10-14T07:57:45.622Z,19.37
2022-10-14T08:00:13.833Z,19.31
2022-10-14T08:02:42.353Z,19.40
2022-10-14T08:05:36.381Z,19.39
2022-10-14T08:07:58.689Z,19.85
2022-10-14T08:10:26.584Z,20.68
2022-10-14T08:12:54.932Z,20.71
2022-10-14T08:15:23.231Z,20.73
2022-10-14T08:17:51.082Z,21.12
2022-10-14T08:20:18.983Z,21.37
2022-10-14T08:22:47.219Z,21.73
2022-10-14T08:25:15.276Z,22.33
2022-10-14T08:27:43.285Z,22.83
2022-10-14T08:30:11.801Z,22.90
2022-10-14T08:32:39.883Z,22.72
2022-10-14T08:35:08.752Z,22.69
2022-10-14T08:37:37.210Z,22.80
2022-10-14T08:40:05.997Z,22.64
2022-10-14T08:42:40.973Z,22.32
2022-10-14T08:45:43.272Z,21.80
2022-10-14T08:48:14.894Z,22.36
2022-10-14T08:50:54.170Z,22.80
2022-10-14T08:53:28.898Z,22.69
2022-10-14T08:56:02.720Z,21.98
2022-10-14T08:58:36.524Z,21.92
2022-10-14T09:01:25.120Z,22.45
2022-10-14T09:04:13.647Z,23.39
2022-10-14T09:06:44.828Z,24.12
2022-10-14T09:09:45.694Z,24.65
2022-10-14T09:12:17.573Z,24.16
2022-10-14T09:14:48.911Z,24.91
2022-10-14T09:17:24.429Z,24.91
2022-10-14T09:20:08.929Z,25.23
2022-10-14T09:22:37.580Z,25.39
2022-10-14T09:25:13.682Z,25.85
2022-10-14T09:27:42.537Z,25.70
2022-10-14T09:30:17.963Z,25.92
2022-10-14T09:32:51.556Z,25.23
2022-10-14T09:35:25.432Z,25.66
2022-10-14T09:37:53.978Z,26.41
2022-10-14T09:40:33.896Z,26.74
2022-10-14T09:43:04.985Z,27.13
2022-10-14T09:45:48.291Z,26.89
2022-10-14T09:48:38.133Z,26.39
2022-10-14T09:51:08.482Z,27.11
2022-10-14T09:53:50.649Z,27.24
2022-10-14T09:56:28.141Z,27.17
2022-10-14T09:58:57.713Z,27.23
2022-10-14T10:01:27.894Z,27.02
2022-10-14T10:03:57.211Z,26.11
2022-10-14T10:06:27.112Z,27.12
2022-10-14T10:08:58.572Z,27.18
2022-10-14T10:11:38.034Z,27.29
2022-10-14T10:14:19.395Z,26.54
2022-10-14T10:19:32.938Z,26.33
2022-10-14T10:25:01.712Z,26.52
2022-10-14T10:27:40.000Z,26.42
2022-10-14T10:30:27.600Z,26.64
2022-10-14T10:33:43.259Z,26.37
2022-10-14T10:36:22.349Z,26.97
2022-10-14T10:39:29.004Z,26.63
2022-10-14T10:42:18.239Z,26.43
2022-10-14T10:45:05.191Z,26.80
2022-10-14T10:47:34.200Z,26.81
2022-10-14T10:50:22.610Z,26.54
2022-10-14T10:53:23.073Z,27.35
2022-10-14T10:56:00.195Z,27.54
2022-10-14T10:58:42.339Z,26.88
2022-10-14T11:01:26.375Z,26.16
2022-10-14T11:04:06.729Z,26.00
2022-10-14T11:07:27.971Z,26.57
2022-10-14T11:10:27.262Z,27.26
2022-10-14T11:13:30.826Z,27.64
2022-10-14T11:16:13.941Z,27.48
2022-10-14T11:18:49.727Z,27.86
2022-10-14T11:21:22.120Z,27.93
2022-10-14T11:23:59.859Z,28.04
2022-10-14T11:26:44.014Z,28.28
2022-10-14T11:30:03.591Z,28.37
2022-10-14T11:32:49.529Z,28.79
2022-10-14T11:35:29.712Z,28.78
2022-10-14T11:38:19.435Z,28.46
2022-10-14T11:41:06.743Z,27.46
2022-10-14T11:44:05.364Z,27.67
2022-10-14T11:46:37.104Z,27.24
2022-10-14T11:49:27.439Z,26.74
2022-10-14T11:51:59.937Z,26.69
2022-10-14T11:54:30.761Z,26.48
2022-10-14T11:57:04.619Z,26.35
2022-10-14T11:59:48.435Z,25.78
2022-10-14T12:02:40.057Z,24.72
2022-10-14T12:05:49.653Z,23.92
2022-10-14T12:08:27.014Z,23.94
2022-10-14T12:11:07.707Z,24.13
2022-10-14T12:13:41.932Z,24.31
2022-10-14T12:16:14.518Z,24.63
2022-10-14T12:18:43.532Z,24.83
2022-10-14T12:21:22.553Z,24.23
2022-10-14T12:24:14.776Z,24.58
2022-10-14T12:27:11.882Z,24.77
2022-10-14T12:29:45.780Z,24.57
2022-10-14T12:32:17.088Z,24.54
2022-10-14T12:34:46.614Z,24.00
2022-10-14T12:37:31.700Z,23.85
2022-10-14T12:40:02.917Z,24.24
2022-10-14T12:42:37.540Z,23.89
2022-10-14T12:45:18.046Z,23.87
2022-10-14T12:47:46.490Z,23.79
2022-10-14T12:50:19.352Z,23.55
2022-10-14T12:52:56.631Z,23.42
2022-10-14T12:55:26.967Z,23.36
2022-10-14T12:58:00.309Z,23.42
2022-10-14T13:00:43.790Z,23.37
2022-10-14T13:03:21.412Z,22.55
2022-10-14T13:05:49.365Z,22.67
2022-10-14T13:08:20.580Z,22.54
2022-10-14T13:10:54.682Z,22.78
2022-10-14T13:13:35.488Z,22.32
2022-10-14T13:16:03.970Z,22.57
2022-10-14T13:18:33.789Z,22.21
2022-10-14T13:21:03.818Z,21.67
2022-10-14T13:23:31.640Z,22.31
2022-10-14T13:26:30.551Z,21.50
2022-10-14T13:29:24.050Z,21.47
2022-10-14T13:32:21.167Z,21.26
2022-10-14T13:35:06.518Z,21.78
2022-10-14T13:37:46.346Z,22.00
2022-10-14T13:40:20.515Z,21.85
2022-10-14T13:42:55.092Z,22.21
2022-10-14T13:45:39.569Z,22.18
2022-10-14T13:48:28.411Z,22.34
2022-10-14T13:51:31.987Z,22.21
2022-10-14T13:54:23.443Z,22.27
2022-10-14T13:57:42.733Z,22.22
2022-10-14T14:02:51.824Z,21.80
2022-10-14T14:05:26.316Z,21.94
2022-10-14T14:11:14.904Z,22.41
2022-10-14T14:14:18.803Z,22.14
2022-10-14T14:16:56.490Z,21.70
2022-10-14T14:19:33.779Z,22.14
2022-10-14T14:22:24.510Z,21.59
2022-10-14T14:24:53.910Z,21.71
2022-10-14T14:27:24.859Z,21.82
2022-10-14T14:29:54.510Z,20.89
2022-10-14T14:32:26.122Z,21.02
2022-10-14T14:34:55.013Z,21.14
2022-10-14T14:40:28.333Z,21.01
2022-10-14T14:42:59.910Z,21.10
2022-10-14T14:45:31.051Z,20.38
2022-10-14T14:48:02.570Z,20.49
2022-10-14T14:50:37.594Z,20.90
2022-10-14T14:53:20.921Z,20.70
2022-10-14T14:56:06.811Z,20.66
2022-10-14T14:58:40.710Z,20.13
2022-10-14T15:01:24.285Z,20.48
2022-10-14T15:04:17.700Z,19.79
2022-10-14T15:06:56.872Z,19.68
2022-10-14T15:09:30.675Z,20.32
2022-10-14T15:12:01.594Z,19.05
2022-10-14T15:14:46.081Z,19.09
2022-10-14T15:17:37.830Z,19.05
2022-10-14T15:20:05.876Z,19.77
2022-10-14T15:22:39.050Z,19.67
2022-10-14T15:25:10.102Z,19.21
2022-10-14T15:27:38.344Z,18.86
2022-10-14T15:30:36.246Z,18.58
2022-10-14T15:33:13.983Z,18.31
2022-10-14T15:35:42.870Z,18.01
2022-10-14T15:38:16.164Z,17.75
2022-10-14T15:40:46.532Z,17.40
2022-10-14T15:43:17.930Z,17.05
2022-10-14T15:46:13.170Z,16.04
2022-10-14T15:48:47.054Z,16.64
2022-10-14T15:51:20.066Z,16.74
2022-10-14T15:53:49.346Z,16.55
2022-10-14T15:56:17.553Z,16.17
2022-10-14T15:58:45.486Z,15.61
2022-10-14T16:01:18.061Z,15.84
2022-10-14T16:03:48.451Z,15.88
2022-10-14T16:06:17.313Z,15.68
2022-10-14T16:08:46.957Z,15.51
2022-10-14T16:11:29.030Z,15.31
2022-10-14T16:13:57.163Z,15.29
2022-10-14T16:16:37.210Z,15.24
2022-10-14T16:19:05.218Z,15.16
2022-10-14T16:21:33.870Z,14.94
2022-10-14T16:24:03.744Z,14.71
2022-10-14T16:26:32.232Z,14.28
2022-10-14T16:29:03.391Z,13.68
2022-10-14T16:31:31.284Z,14.33
2022-10-14T16:33:59.464Z,14.62
2022-10-14T16:36:28.210Z,14.66
2022-10-14T16:38:57.384Z,14.70
2022-10-14T16:41:31.230Z,14.65
2022-10-14T16:43:59.100Z,14.35
2022-10-14T16:46:46.930Z,14.47
2022-10-14T16:49:15.446Z,14.55
2022-10-14T16:51:44.218Z,14.20
2022-10-14T16:54:12.221Z,14.09
2022-10-14T16:56:53.741Z,13.78
2022-10-14T16:59:22.614Z,13.70
2022-10-14T17:01:51.796Z,14.14
2022-10-14T17:04:20.297Z,13.96
2022-10-14T17:06:50.003Z,13.99
2022-10-14T17:09:18.928Z,14.07
2022-10-14T17:11:47.600Z,13.78
2022-10-14T17:14:18.470Z,13.73
2022-10-14T17:16:48.516Z,13.83
2022-10-14T17:19:16.328Z,13.86
2022-10-14T17:21:45.292Z,13.52
2022-10-14T17:24:17.189Z,13.40
2022-10-14T17:26:45.671Z,13.76
2022-10-14T17:29:14.331Z,13.63
2022-10-14T17:31:45.485Z,13.69
2022-10-14T17:34:14.198Z,13.51
2022-10-14T17:36:42.261Z,13.15
2022-10-14T17:39:18.930Z,13.06
2022-10-14T17:41:53.296Z,12.40
2022-10-14T17:44:22.808Z,12.81
2022-10-14T17:46:51.110Z,13.28
2022-10-14T17:49:20.577Z,13.41
2022-10-14T17:51:49.650Z,13.45
2022-10-14T17:54:18.449Z,12.83
2022-10-14T17:56:49.279Z,13.32
2022-10-14T17:59:17.093Z,13.15
2022-10-14T18:04:36.150Z,12.94
2022-10-14T18:07:05.026Z,12.85
2022-10-14T18:09:35.021Z,12.68
2022-10-14T18:12:08.902Z,12.74
2022-10-14T18:14:41.675Z,12.70
2022-10-14T18:17:11.318Z,12.60
2022-10-14T18:19:46.110Z,12.28
2022-10-14T18:22:18.288Z,12.38
2022-10-14T18:24:47.197Z,12.32
2022-10-14T18:27:15.264Z,12.20
2022-10-14T18:29:43.399Z,12.57
2022-10-14T18:32:11.798Z,12.42
2022-10-14T18:34:40.199Z,12.52
2022-10-14T18:37:08.073Z,12.19
2022-10-14T18:39:36.719Z,12.53
2022-10-14T18:42:04.699Z,12.40
2022-10-14T18:44:32.654Z,12.14
2022-10-14T18:47:01.818Z,12.37
2022-10-14T18:49:30.035Z,12.28
2022-10-14T18:51:58.278Z,12.42
2022-10-14T18:54:26.701Z,12.05
2022-10-14T18:56:56.102Z,12.21
2022-10-14T18:59:26.069Z,12.19
2022-10-14T19:01:56.407Z,12.26
2022-10-14T19:04:27.240Z,12.20
2022-10-14T19:06:55.649Z,12.08
2022-10-14T19:09:29.141Z,12.01
2022-10-14T19:11:59.300Z,11.97
2022-10-14T19:14:29.092Z,12.02
2022-10-14T19:16:57.355Z,12.18
2022-10-14T19:19:25.871Z,12.07
2022-10-14T19:21:56.454Z,12.08
2022-10-14T19:24:24.769Z,12.07
2022-10-14T19:26:54.356Z,11.97
2022-10-14T19:29:22.312Z,11.89
2022-10-14T19:31:51.018Z,11.90
2022-10-14T19:34:18.880Z,11.94
2022-10-14T19:36:46.770Z,12.29
2022-10-14T19:39:16.729Z,11.50
2022-10-14T19:41:46.711Z,12.08
2022-10-14T19:44:16.814Z,12.27
2022-10-14T19:46:45.291Z,12.40
2022-10-14T19:49:14.658Z,12.46
2022-10-14T19:51:42.933Z,12.36
2022-10-14T19:54:12.655Z,12.32
2022-10-14T19:56:40.895Z,12.35
2022-10-14T19:59:09.641Z,11.62
2022-10-14T20:01:37.721Z,12.19
2022-10-14T20:04:06.120Z,12.28
2022-10-14T20:06:36.114Z,12.31
2022-10-14T20:09:04.527Z,12.23
2022-10-14T20:11:34.307Z,12.28
2022-10-14T20:14:02.218Z,12.11
2022-10-14T20:16:33.422Z,11.58
2022-10-14T20:19:01.682Z,11.30
2022-10-14T20:21:31.157Z,11.80
2022-10-14T20:24:01.702Z,11.98
2022-10-14T20:26:29.894Z,11.96
2022-10-14T20:28:57.716Z,11.63
2022-10-14T20:31:25.845Z,11.95
2022-10-14T20:33:55.961Z,12.02
2022-10-14T20:36:24.428Z,11.71
2022-10-14T20:38:52.393Z,11.61
2022-10-14T20:41:23.173Z,11.97
2022-10-14T20:43:51.757Z,11.92
2022-10-14T20:46:19.908Z,11.84
2022-10-14T20:48:48.170Z,11.38
2022-10-14T20:51:18.074Z,11.53
2022-10-14T20:53:45.925Z,11.58
2022-10-14T20:56:14.633Z,11.43
2022-10-14T20:58:42.501Z,11.12
2022-10-14T21:01:17.914Z,11.76
2022-10-14T21:03:47.018Z,11.81
2022-10-14T21:06:20.144Z,11.30
2022-10-14T21:08:49.780Z,11.05
2022-10-14T21:11:22.718Z,11.29
2022-10-14T21:13:53.568Z,11.75
2022-10-14T21:16:21.630Z,11.41
2022-10-14T21:18:55.121Z,11.84
2022-10-14T21:21:26.585Z,11.91
2022-10-14T21:23:56.713Z,12.20
2022-10-14T21:26:26.991Z,12.25
2022-10-14T21:28:55.048Z,12.17
2022-10-14T21:31:23.114Z,12.10
2022-10-14T21:34:04.393Z,11.94
2022-10-14T21:36:34.852Z,12.23
2022-10-14T21:39:11.983Z,12.34
2022-10-14T21:41:40.643Z,12.07
2022-10-14T21:44:09.711Z,12.16
2022-10-14T21:46:37.626Z,12.58
2022-10-14T21:49:05.481Z,12.52
2022-10-14T21:51:33.627Z,12.37
2022-10-14T21:54:01.555Z,12.44
2022-10-14T21:56:29.470Z,11.66
2022-10-14T21:58:58.093Z,11.90
2022-10-14T22:01:28.590Z,11.64
2022-10-14T22:04:01.671Z,11.73
2022-10-14T22:06:30.205Z,12.13
2022-10-14T22:08:59.968Z,11.55
2022-10-14T22:11:36.882Z,11.61
2022-10-14T22:14:07.259Z,11.78
2022-10-14T22:16:35.711Z,12.28
2022-10-14T22:19:05.313Z,11.62
2022-10-14T22:21:35.528Z,11.34
2022-10-14T22:24:04.463Z,11.31
2022-10-14T22:26:33.280Z,11.53
2022-10-14T22:29:02.362Z,11.73
2022-10-14T22:31:32.965Z,12.24
2022-10-14T22:34:02.891Z,11.66
2022-10-14T22:36:31.865Z,12.02
2022-10-14T22:39:01.527Z,11.70
2022-10-14T22:41:34.975Z,11.75
2022-10-14T22:44:04.582Z,11.73
2022-10-14T22:46:35.540Z,12.08
2022-10-14T22:49:03.671Z,11.89
2022-10-14T22:51:34.324Z,11.00
2022-10-14T22:54:03.290Z,10.92
2022-10-14T22:56:32.404Z,11.04
2022-10-14T22:59:02.521Z,11.55
2022-10-14T23:01:31.185Z,11.42
2022-10-14T23:04:00.080Z,11.89
2022-10-14T23:06:28.441Z,11.63
2022-10-14T23:08:57.038Z,11.70
2022-10-14T23:11:25.654Z,11.86
2022-10-14T23:13:54.497Z,11.63
2022-10-14T23:16:27.369Z,11.28
2022-10-14T23:18:55.568Z,11.48
2022-10-14T23:21:32.008Z,11.38
2022-10-14T23:24:01.697Z,11.30
2022-10-14T23:26:37.531Z,11.22
2022-10-14T23:29:09.018Z,11.23
2022-10-14T23:31:38.830Z,11.20
2022-10-14T23:34:09.854Z,10.98
2022-10-14T23:36:38.111Z,11.00
2022-10-14T23:39:06.280Z,10.94
2022-10-14T23:41:34.248Z,10.58
2022-10-14T23:44:03.140Z,11.09
2022-10-14T23:46:30.988Z,10.49
2022-10-14T23:49:07.493Z,10.80
2022-10-14T23:51:47.074Z,10.72
2022-10-14T23:54:14.920Z,11.14
2022-10-14T23:56:42.670Z,10.71
2022-10-14T23:59:10.900Z,10.84
